createdAt,value
2022-07-29T00:03:50.708Z,100903.63
2022-07-29T00:06:19.666Z,100943.03
2022-07-29T00:08:48.673Z,100942.34
2022-07-29T00:11:17.404Z,100830.00
2022-07-29T00:13:50.773Z,100942.25
2022-07-29T00:16:20.067Z,100938.03
2022-07-29T00:18:50.038Z,100949.56
2022-07-29T00:21:18.995Z,100941.44
2022-07-29T00:23:47.592Z,100947.81
2022-07-29T00:26:16.184Z,100951.88
2022-07-29T00:28:45.085Z,100940.63
2022-07-29T00:31:14.393Z,100930.41
2022-07-29T00:33:43.241Z,100928.78
2022-07-29T00:36:12.231Z,100925.88
2022-07-29T00:38:42.618Z,100923.88
2022-07-29T00:41:11.522Z,100923.25
2022-07-29T00:43:40.422Z,100928.13
2022-07-29T00:46:09.249Z,100924.69
2022-07-29T00:48:38.370Z,100923.97
2022-07-29T00:51:08.666Z,100921.28
2022-07-29T00:53:40.096Z,100926.47
2022-07-29T00:56:08.929Z,100915.94
2022-07-29T00:58:37.702Z,100878.09
2022-07-29T01:01:06.647Z,100915.25
2022-07-29T01:03:35.540Z,100914.16
2022-07-29T01:06:04.570Z,100912.66
2022-07-29T01:08:35.414Z,100904.75
2022-07-29T01:11:05.989Z,100901.50
2022-07-29T01:13:36.343Z,100826.94
2022-07-29T01:16:15.199Z,100896.28
2022-07-29T01:18:49.319Z,100878.69
2022-07-29T01:21:51.931Z,100690.16
2022-07-29T01:24:50.598Z,100881.69
2022-07-29T01:27:53.659Z,100887.13
2022-07-29T01:30:27.946Z,100828.38
2022-07-29T01:33:05.209Z,100871.16
2022-07-29T01:35:41.958Z,100871.44
2022-07-29T01:38:19.077Z,100870.25
2022-07-29T01:40:53.785Z,100870.72
2022-07-29T01:43:33.366Z,100871.44
2022-07-29T01:46:08.684Z,100870.03
2022-07-29T01:48:43.247Z,100867.78
2022-07-29T01:51:20.181Z,100863.69
2022-07-29T01:54:00.119Z,100868.16
2022-07-29T01:56:34.782Z,100845.56
2022-07-29T01:59:06.690Z,100853.56
2022-07-29T02:01:39.790Z,100858.69
2022-07-29T02:04:13.359Z,100855.22
2022-07-29T02:07:03.707Z,100853.56
2022-07-29T02:09:35.418Z,100850.25
2022-07-29T02:12:06.732Z,100849.59
2022-07-29T02:14:41.867Z,100843.41
2022-07-29T02:17:16.401Z,100818.97
2022-07-29T02:19:47.488Z,100852.94
2022-07-29T02:22:17.124Z,100848.78
2022-07-29T02:24:48.543Z,100847.09
2022-07-29T02:27:21.258Z,100847.25
2022-07-29T02:29:54.268Z,100811.59
2022-07-29T02:32:26.779Z,100849.16
2022-07-29T02:34:57.740Z,100847.97
2022-07-29T02:37:28.834Z,100849.47
2022-07-29T02:39:59.713Z,100795.19
2022-07-29T02:42:31.053Z,100841.22
2022-07-29T02:45:00.014Z,100844.78
2022-07-29T02:47:41.585Z,100841.44
2022-07-29T02:50:17.605Z,100821.72
2022-07-29T02:52:54.762Z,100821.84
2022-07-29T02:55:32.268Z,100833.25
2022-07-29T02:58:04.506Z,100835.03
2022-07-29T03:00:39.852Z,100793.53
2022-07-29T03:03:15.304Z,100844.91
2022-07-29T03:05:44.394Z,100847.53
2022-07-29T03:08:15.053Z,100848.28
2022-07-29T03:10:48.233Z,100842.91
2022-07-29T03:13:18.323Z,100857.19
2022-07-29T03:15:49.198Z,100853.28
2022-07-29T03:18:20.053Z,100856.81
2022-07-29T03:20:48.745Z,100800.97
2022-07-29T03:23:23.738Z,100828.75
2022-07-29T03:25:52.535Z,100850.56
2022-07-29T03:28:21.658Z,100847.84
2022-07-29T03:30:52.129Z,100868.97
2022-07-29T03:33:22.256Z,100855.63
2022-07-29T03:35:50.812Z,100818.03
2022-07-29T03:38:19.416Z,100852.66
2022-07-29T03:40:55.642Z,100756.78
2022-07-29T03:43:30.847Z,100860.09
2022-07-29T03:46:03.604Z,100859.03
2022-07-29T03:48:38.669Z,100858.03
2022-07-29T03:51:07.839Z,100857.91
2022-07-29T03:53:37.643Z,100856.91
2022-07-29T03:56:08.709Z,100862.19
2022-07-29T03:58:38.115Z,100857.72
2022-07-29T04:01:06.984Z,100867.56
2022-07-29T04:03:37.538Z,100866.56
2022-07-29T04:06:09.985Z,100857.91
2022-07-29T04:08:38.621Z,100808.03
2022-07-29T04:11:07.659Z,100860.97
2022-07-29T04:13:37.382Z,100865.28
2022-07-29T04:16:06.935Z,100855.31
2022-07-29T04:18:36.962Z,100828.19
2022-07-29T04:21:06.334Z,100848.66
2022-07-29T04:23:34.945Z,100855.59
2022-07-29T04:26:03.778Z,100862.56
2022-07-29T04:28:32.388Z,100856.31
2022-07-29T04:31:00.996Z,100854.50
2022-07-29T04:33:29.985Z,100853.47
2022-07-29T04:36:00.074Z,100849.75
2022-07-29T04:38:30.069Z,100847.03
2022-07-29T04:40:58.880Z,100854.91
2022-07-29T04:43:28.240Z,100852.22
2022-07-29T04:46:06.021Z,100859.16
2022-07-29T04:48:34.757Z,100863.66
2022-07-29T04:51:04.767Z,100857.41
2022-07-29T04:53:33.647Z,100859.94
2022-07-29T04:56:02.531Z,100862.50
2022-07-29T04:58:31.164Z,100852.50
2022-07-29T05:00:59.808Z,100847.25
2022-07-29T05:03:28.796Z,100839.25
2022-07-29T05:05:57.575Z,100847.41
2022-07-29T05:08:27.603Z,100831.38
2022-07-29T05:10:56.526Z,100837.25
2022-07-29T05:13:25.127Z,100844.94
2022-07-29T05:15:54.104Z,100835.75
2022-07-29T05:18:26.099Z,100838.75
2022-07-29T05:20:55.260Z,100846.47
2022-07-29T05:23:24.207Z,100851.56
2022-07-29T05:25:54.216Z,100818.50
2022-07-29T05:28:23.340Z,100810.28
2022-07-29T05:30:52.202Z,100847.22
2022-07-29T05:33:36.229Z,100856.19
2022-07-29T05:36:07.989Z,100855.72
2022-07-29T05:38:37.716Z,100857.38
2022-07-29T05:41:08.062Z,100860.78
2022-07-29T05:43:36.668Z,100863.44
2022-07-29T05:46:05.301Z,100845.19
2022-07-29T05:48:33.996Z,100836.34
2022-07-29T05:51:02.959Z,100853.53
2022-07-29T05:53:31.596Z,100821.84
2022-07-29T05:56:00.192Z,100857.09
2022-07-29T05:58:30.787Z,100817.34
2022-07-29T06:01:00.357Z,100860.91
2022-07-29T06:03:29.680Z,100855.13
2022-07-29T06:05:58.526Z,100858.16
2022-07-29T06:08:27.184Z,100852.72
2022-07-29T06:10:56.262Z,100860.38
2022-07-29T06:13:24.863Z,100864.44
2022-07-29T06:15:55.050Z,100867.91
2022-07-29T06:18:25.000Z,100866.94
2022-07-29T06:20:53.876Z,100864.81
2022-07-29T06:23:23.509Z,100793.88
2022-07-29T06:25:52.189Z,100867.88
2022-07-29T06:28:21.062Z,100866.34
2022-07-29T06:30:49.719Z,100855.19
2022-07-29T06:33:22.860Z,100846.00
2022-07-29T06:35:53.160Z,100883.53
2022-07-29T06:38:30.872Z,100866.06
2022-07-29T06:41:03.456Z,100874.00
2022-07-29T06:43:50.251Z,100880.59
2022-07-29T06:46:22.081Z,100881.63
2022-07-29T06:48:53.454Z,100883.28
2022-07-29T06:51:23.909Z,100819.22
2022-07-29T06:53:58.075Z,100874.41
2022-07-29T06:56:29.596Z,100882.41
2022-07-29T06:58:58.139Z,100882.25
2022-07-29T07:01:26.990Z,100859.19
2022-07-29T07:03:57.256Z,100844.75
2022-07-29T07:06:26.175Z,100879.38
2022-07-29T07:08:54.771Z,100831.81
2022-07-29T07:11:23.666Z,100884.13
2022-07-29T07:13:52.252Z,100879.06
2022-07-29T07:16:20.963Z,100882.88
2022-07-29T07:18:49.625Z,100868.59
2022-07-29T07:21:19.741Z,100874.53
2022-07-29T07:23:48.776Z,100878.66
2022-07-29T07:26:17.727Z,100856.88
2022-07-29T07:28:46.614Z,100868.91
2022-07-29T07:31:15.366Z,100831.34
2022-07-29T07:33:44.001Z,100844.81
2022-07-29T07:36:12.718Z,100871.19
2022-07-29T07:38:42.793Z,100879.50
2022-07-29T07:41:11.415Z,100881.03
2022-07-29T07:43:40.019Z,100886.47
2022-07-29T07:46:08.759Z,100864.06
2022-07-29T07:48:38.047Z,100891.19
2022-07-29T07:51:06.795Z,100888.91
2022-07-29T07:53:35.428Z,100866.66
2022-07-29T07:56:10.832Z,100853.91
2022-07-29T07:58:40.789Z,100880.41
2022-07-29T08:01:10.013Z,100885.53
2022-07-29T08:03:39.330Z,100860.16
2022-07-29T08:06:08.846Z,100881.56
2022-07-29T08:08:37.486Z,100875.94
2022-07-29T08:11:09.816Z,100853.22
2022-07-29T08:13:40.439Z,100881.94
2022-07-29T08:16:16.586Z,100879.53
2022-07-29T08:18:47.957Z,100850.56
2022-07-29T08:21:17.681Z,100851.72
2022-07-29T08:24:00.793Z,100883.72
2022-07-29T08:26:32.082Z,100854.91
2022-07-29T08:29:00.781Z,100880.59
2022-07-29T08:31:29.441Z,100887.31
2022-07-29T08:34:00.835Z,100866.63
2022-07-29T08:36:29.434Z,100878.63
2022-07-29T08:38:57.985Z,100879.25
2022-07-29T08:41:27.561Z,100883.59
2022-07-29T08:43:57.613Z,100875.47
2022-07-29T08:46:26.516Z,100863.78
2022-07-29T08:48:55.519Z,100883.41
2022-07-29T08:51:26.411Z,100792.66
2022-07-29T08:53:57.462Z,100871.50
2022-07-29T08:56:26.668Z,100864.63
2022-07-29T08:58:59.995Z,100876.47
2022-07-29T09:01:42.430Z,100867.34
2022-07-29T09:04:14.597Z,100866.91
2022-07-29T09:06:48.315Z,100820.03
2022-07-29T09:09:17.693Z,100862.03
2022-07-29T09:11:46.569Z,100867.13
2022-07-29T09:14:17.304Z,100858.34
2022-07-29T09:17:01.201Z,100832.63
2022-07-29T09:19:32.973Z,100857.88
2022-07-29T09:22:04.066Z,100857.84
2022-07-29T09:24:42.693Z,100857.16
2022-07-29T09:27:22.791Z,100851.53
2022-07-29T09:30:02.043Z,100837.25
2022-07-29T09:32:31.670Z,100859.25
2022-07-29T09:35:25.348Z,100858.03
2022-07-29T09:37:54.443Z,100823.91
2022-07-29T09:40:26.366Z,100781.38
2022-07-29T09:42:58.280Z,100805.91
2022-07-29T09:45:33.999Z,100829.78
2022-07-29T09:48:16.259Z,100847.19
2022-07-29T09:50:48.042Z,100733.00
2022-07-29T09:53:34.007Z,100835.50
2022-07-29T09:56:03.387Z,100837.25
2022-07-29T09:58:34.688Z,100833.91
2022-07-29T10:01:07.701Z,100825.88
2022-07-29T10:04:07.354Z,100832.59
2022-07-29T10:06:36.063Z,100823.34
2022-07-29T10:09:14.417Z,100800.47
2022-07-29T10:11:48.924Z,100830.28
2022-07-29T10:14:19.146Z,100827.50
2022-07-29T10:16:49.589Z,100829.38
2022-07-29T10:19:19.592Z,100813.72
2022-07-29T10:21:48.597Z,100833.94
2022-07-29T10:24:17.942Z,100836.69
2022-07-29T10:26:48.143Z,100811.19
2022-07-29T10:29:16.742Z,100814.94
2022-07-29T10:32:07.265Z,100828.56
2022-07-29T10:34:59.921Z,100780.00
2022-07-29T10:37:45.807Z,100818.66
2022-07-29T10:40:47.593Z,100825.38
2022-07-29T10:43:25.171Z,100816.00
2022-07-29T10:46:00.333Z,100816.38
2022-07-29T10:48:30.944Z,100823.91
2022-07-29T10:51:03.925Z,100819.97
2022-07-29T10:53:53.354Z,100820.69
2022-07-29T10:56:35.062Z,100792.22
2022-07-29T10:59:32.344Z,100815.19
2022-07-29T11:02:45.077Z,100804.44
2022-07-29T11:05:18.816Z,100800.00
2022-07-29T11:08:26.404Z,100802.63
2022-07-29T11:11:39.629Z,100784.91
2022-07-29T11:14:13.248Z,100769.84
2022-07-29T11:20:14.593Z,100778.78
2022-07-29T11:22:47.355Z,100789.75
2022-07-29T11:25:17.570Z,100784.75
2022-07-29T11:27:47.571Z,100769.22
2022-07-29T11:30:17.034Z,100778.84
2022-07-29T11:32:48.673Z,100790.72
2022-07-29T11:35:37.265Z,100781.28
2022-07-29T11:38:36.127Z,100783.38
2022-07-29T11:41:25.480Z,100781.22
2022-07-29T11:43:56.198Z,100782.94
2022-07-29T11:46:49.984Z,100772.69
2022-07-29T11:49:32.792Z,100779.75
2022-07-29T11:52:04.024Z,100745.41
2022-07-29T11:57:36.287Z,100759.69
2022-07-29T12:00:12.268Z,100743.19
2022-07-29T12:02:44.187Z,100755.81
2022-07-29T12:05:36.033Z,100738.81
2022-07-29T12:08:27.006Z,100731.34
2022-07-29T12:10:57.162Z,100730.09
2022-07-29T12:13:37.773Z,100759.66
2022-07-29T12:16:07.299Z,100758.69
2022-07-29T12:18:36.251Z,100752.28
2022-07-29T12:21:06.208Z,100748.50
2022-07-29T12:23:35.598Z,100737.22
2022-07-29T12:26:10.918Z,100734.66
2022-07-29T12:28:51.286Z,100697.31
2022-07-29T12:31:42.098Z,100746.53
2022-07-29T12:34:09.135Z,100748.22
2022-07-29T12:36:38.749Z,100696.22
2022-07-29T12:39:07.830Z,100670.81
2022-07-29T12:41:38.447Z,100738.63
2022-07-29T12:44:07.655Z,100722.16
2022-07-29T12:46:36.313Z,100732.25
2022-07-29T12:49:06.179Z,100700.44
2022-07-29T12:51:38.217Z,100730.31
2022-07-29T12:54:11.594Z,100723.31
2022-07-29T12:56:44.777Z,100728.75
2022-07-29T12:59:18.912Z,100716.41
2022-07-29T13:01:50.315Z,100695.81
2022-07-29T13:04:30.783Z,100642.34
2022-07-29T13:07:05.217Z,100658.97
2022-07-29T13:09:42.215Z,100720.44
2022-07-29T13:12:15.048Z,100712.31
2022-07-29T13:14:46.332Z,100701.94
2022-07-29T13:17:17.679Z,100710.97
2022-07-29T13:19:48.753Z,100705.94
2022-07-29T13:22:21.381Z,100707.38
2022-07-29T13:24:55.736Z,100689.06
2022-07-29T13:27:28.489Z,100700.66
2022-07-29T13:29:59.046Z,100705.28
2022-07-29T13:32:29.431Z,100698.34
2022-07-29T13:34:59.543Z,100693.34
2022-07-29T13:37:30.756Z,100686.19
2022-07-29T13:40:00.511Z,100652.66
2022-07-29T13:42:30.890Z,100655.09
2022-07-29T13:44:59.538Z,100634.41
2022-07-29T13:47:32.680Z,100679.06
2022-07-29T13:50:02.611Z,100659.19
2022-07-29T13:52:31.719Z,100680.25
2022-07-29T13:55:00.883Z,100675.56
2022-07-29T13:57:31.400Z,100684.34
2022-07-29T14:00:00.960Z,100630.16
2022-07-29T14:02:34.103Z,100628.88
2022-07-29T14:05:07.661Z,100665.81
2022-07-29T14:07:37.495Z,100646.91
2022-07-29T14:10:08.146Z,100666.81
2022-07-29T14:12:39.310Z,100663.75
2022-07-29T14:15:09.431Z,100656.72
2022-07-29T14:17:40.849Z,100657.81
2022-07-29T14:20:10.557Z,100656.34
2022-07-29T14:22:42.365Z,100549.81
2022-07-29T14:25:15.082Z,100640.16
2022-07-29T14:27:45.959Z,100612.63
2022-07-29T14:30:15.651Z,100598.88
2022-07-29T14:32:44.475Z,100648.59
2022-07-29T14:35:13.157Z,100644.78
2022-07-29T14:37:42.389Z,100641.47
2022-07-29T14:40:13.106Z,100622.81
2022-07-29T14:42:42.280Z,100621.03
2022-07-29T14:45:12.928Z,100644.06
2022-07-29T14:47:41.753Z,100626.69
2022-07-29T14:50:12.529Z,100614.53
2022-07-29T14:52:41.280Z,100605.81
2022-07-29T14:55:16.656Z,100618.59
2022-07-29T14:57:50.947Z,100643.84
2022-07-29T15:00:21.822Z,100560.81
2022-07-29T15:03:06.523Z,100626.69
2022-07-29T15:05:40.130Z,100629.00
2022-07-29T15:08:09.836Z,100644.47
2022-07-29T15:10:38.761Z,100592.34
2022-07-29T15:13:07.441Z,100645.34
2022-07-29T15:15:37.588Z,100588.50
2022-07-29T15:18:06.636Z,100620.41
2022-07-29T15:20:35.244Z,100582.47
2022-07-29T15:23:03.846Z,100628.69
2022-07-29T15:25:34.041Z,100596.44
2022-07-29T15:28:04.064Z,100623.84
2022-07-29T15:30:34.588Z,100630.41
2022-07-29T15:33:05.784Z,100611.66
2022-07-29T15:35:40.393Z,100620.09
2022-07-29T15:38:09.666Z,100615.91
2022-07-29T15:40:40.203Z,100576.28
2022-07-29T15:43:09.376Z,100627.78
2022-07-29T15:45:40.549Z,100573.13
2022-07-29T15:48:14.562Z,100615.59
2022-07-29T15:50:46.983Z,100611.31
2022-07-29T15:53:16.228Z,100607.81
2022-07-29T15:55:46.285Z,100571.13
2022-07-29T15:58:14.825Z,100584.06
2022-07-29T16:00:43.573Z,100570.88
2022-07-29T16:03:13.830Z,100611.53
2022-07-29T16:05:42.960Z,100560.81
2022-07-29T16:08:11.630Z,100583.97
2022-07-29T16:10:41.068Z,100569.38
2022-07-29T16:13:09.728Z,100595.31
2022-07-29T16:15:38.652Z,100584.47
2022-07-29T16:18:08.953Z,100544.97
2022-07-29T16:20:39.625Z,100583.56
2022-07-29T16:23:09.895Z,100584.19
2022-07-29T16:25:59.169Z,100584.38
2022-07-29T16:28:28.949Z,100588.75
2022-07-29T16:30:57.623Z,100588.19
2022-07-29T16:33:26.642Z,100581.84
2022-07-29T16:35:56.638Z,100533.03
2022-07-29T16:38:25.341Z,100496.53
2022-07-29T16:40:53.964Z,100564.16
2022-07-29T16:43:22.678Z,100569.31
2022-07-29T16:45:51.339Z,100577.50
2022-07-29T16:48:20.057Z,100571.84
2022-07-29T16:50:49.141Z,100571.25
2022-07-29T16:53:19.168Z,100568.63
2022-07-29T16:55:47.829Z,100515.66
2022-07-29T16:58:16.494Z,100570.53
2022-07-29T17:00:45.241Z,100542.19
2022-07-29T17:03:13.895Z,100575.78
2022-07-29T17:05:50.698Z,100571.00
2022-07-29T17:08:24.002Z,100574.13
2022-07-29T17:10:52.723Z,100570.69
2022-07-29T17:13:21.624Z,100567.97
2022-07-29T17:15:50.260Z,100573.16
2022-07-29T17:18:19.003Z,100552.47
2022-07-29T17:20:47.687Z,100510.00
2022-07-29T17:23:16.217Z,100545.63
2022-07-29T17:25:46.519Z,100546.50
2022-07-29T17:28:15.152Z,100548.63
2022-07-29T17:30:43.796Z,100545.31
2022-07-29T17:33:12.487Z,100546.94
2022-07-29T17:35:58.740Z,100521.63
2022-07-29T17:38:27.389Z,100519.69
2022-07-29T17:40:57.439Z,100542.91
2022-07-29T17:43:26.069Z,100557.53
2022-07-29T17:45:59.250Z,100559.56
2022-07-29T17:48:28.229Z,100539.50
2022-07-29T17:50:58.112Z,100567.00
2022-07-29T17:53:26.701Z,100568.56
2022-07-29T17:55:58.324Z,100532.50
2022-07-29T17:58:27.764Z,100578.84
2022-07-29T18:00:56.545Z,100571.19
2022-07-29T18:03:26.044Z,100572.84
2022-07-29T18:05:54.947Z,100566.59
2022-07-29T18:08:24.098Z,100570.94
2022-07-29T18:10:53.166Z,100562.06
2022-07-29T18:13:23.278Z,100586.50
2022-07-29T18:15:52.200Z,100582.16
2022-07-29T18:18:20.954Z,100579.75
2022-07-29T18:20:49.766Z,100543.03
2022-07-29T18:23:18.446Z,100564.72
2022-07-29T18:25:47.467Z,100578.53
2022-07-29T18:28:16.354Z,100580.16
2022-07-29T18:30:47.578Z,100554.50
2022-07-29T18:33:22.027Z,100555.34
2022-07-29T18:36:04.221Z,100539.53
2022-07-29T18:38:41.215Z,100580.88
2022-07-29T18:41:10.170Z,100580.66
2022-07-29T18:43:51.542Z,100557.38
2022-07-29T18:46:22.959Z,100588.19
2022-07-29T18:48:52.808Z,100590.50
2022-07-29T18:51:22.773Z,100587.25
2022-07-29T18:53:52.849Z,100590.91
2022-07-29T18:56:22.229Z,100589.69
2022-07-29T18:58:51.162Z,100589.53
2022-07-29T19:01:21.560Z,100580.06
2022-07-29T19:03:50.563Z,100589.16
2022-07-29T19:06:22.731Z,100594.06
2022-07-29T19:08:54.661Z,100591.88
2022-07-29T19:11:23.520Z,100596.69
2022-07-29T19:13:52.248Z,100595.16
2022-07-29T19:16:22.329Z,100554.59
2022-07-29T19:18:51.621Z,100610.06
2022-07-29T19:21:20.508Z,100609.50
2022-07-29T19:24:01.608Z,100605.13
2022-07-29T19:26:43.947Z,100609.56
2022-07-29T19:29:12.579Z,100592.09
2022-07-29T19:31:43.237Z,100576.72
2022-07-29T19:34:12.008Z,100625.81
2022-07-29T19:36:44.777Z,100618.06
2022-07-29T19:39:15.467Z,100594.31
2022-07-29T19:41:44.344Z,100576.06
2022-07-29T19:44:13.882Z,100586.66
2022-07-29T19:46:45.483Z,100601.66
2022-07-29T19:49:14.738Z,100614.16
2022-07-29T19:51:43.331Z,100611.66
2022-07-29T19:54:12.131Z,100613.44
2022-07-29T19:56:42.264Z,100609.56
2022-07-29T19:59:11.013Z,100608.66
2022-07-29T20:01:41.140Z,100612.78
2022-07-29T20:04:11.333Z,100614.09
2022-07-29T20:06:41.019Z,100614.41
2022-07-29T20:09:20.259Z,100623.47
2022-07-29T20:11:49.412Z,100597.66
2022-07-29T20:14:18.098Z,100625.81
2022-07-29T20:16:47.082Z,100618.38
2022-07-29T20:19:17.202Z,100549.31
2022-07-29T20:21:46.204Z,100620.97
2022-07-29T20:24:15.075Z,100628.19
2022-07-29T20:26:43.751Z,100589.22
2022-07-29T20:29:12.332Z,100634.50
2022-07-29T20:31:43.327Z,100642.13
2022-07-29T20:34:14.249Z,100642.47
2022-07-29T20:36:44.885Z,100607.44
2022-07-29T20:39:13.485Z,100570.75
2022-07-29T20:41:42.313Z,100648.53
2022-07-29T20:44:11.310Z,100645.88
2022-07-29T20:46:40.423Z,100648.13
2022-07-29T20:49:09.429Z,100652.69
2022-07-29T20:51:43.809Z,100586.34
2022-07-29T20:54:14.582Z,100651.22
2022-07-29T20:56:43.130Z,100653.31
2022-07-29T20:59:11.981Z,100658.53
2022-07-29T21:01:41.505Z,100652.31
2022-07-29T21:04:17.712Z,100654.50
2022-07-29T21:06:46.740Z,100654.78
2022-07-29T21:09:16.863Z,100611.75
2022-07-29T21:11:45.614Z,100654.47
2022-07-29T21:14:21.933Z,100627.22
2022-07-29T21:16:50.750Z,100651.44
2022-07-29T21:19:19.679Z,100657.59
2022-07-29T21:21:48.728Z,100660.63
2022-07-29T21:24:18.668Z,100656.97
2022-07-29T21:26:59.438Z,100537.78
2022-07-29T21:29:35.280Z,100651.53
2022-07-29T21:32:47.882Z,100463.28
2022-07-29T21:36:11.148Z,100660.31
2022-07-29T21:38:58.484Z,100648.13
2022-07-29T21:42:07.534Z,100478.19
2022-07-29T21:44:41.284Z,100384.69
2022-07-29T21:47:11.974Z,100639.88
2022-07-29T21:49:42.098Z,100647.19
2022-07-29T21:52:11.189Z,100651.59
2022-07-29T21:54:40.094Z,100652.47
2022-07-29T21:57:10.175Z,100644.63
2022-07-29T21:59:39.049Z,100651.38
2022-07-29T22:02:07.615Z,100555.09
2022-07-29T22:04:36.719Z,100641.44
2022-07-29T22:07:05.783Z,100640.00
2022-07-29T22:09:34.385Z,100641.34
2022-07-29T22:12:03.296Z,100564.22
2022-07-29T22:14:33.436Z,100633.00
2022-07-29T22:17:02.424Z,100586.59
2022-07-29T22:19:31.503Z,100566.41
2022-07-29T22:22:00.669Z,100617.06
2022-07-29T22:24:29.456Z,100611.94
2022-07-29T22:26:58.497Z,100619.25
2022-07-29T22:29:27.352Z,100597.81
2022-07-29T22:31:57.260Z,100615.69
2022-07-29T22:34:26.097Z,100624.81
2022-07-29T22:37:06.420Z,100624.81
2022-07-29T22:39:35.345Z,100569.41
2022-07-29T22:42:04.361Z,100617.16
2022-07-29T22:44:33.066Z,100625.19
2022-07-29T22:47:03.199Z,100571.75
2022-07-29T22:49:32.620Z,100625.47
2022-07-29T22:52:01.378Z,100595.69
2022-07-29T22:54:29.942Z,100616.16
2022-07-29T22:56:58.839Z,100631.41
2022-07-29T22:59:27.530Z,100597.81
2022-07-29T23:01:56.128Z,100622.56
2022-07-29T23:04:26.153Z,100601.16
2022-07-29T23:06:54.827Z,100606.13
2022-07-29T23:09:23.713Z,100620.94
2022-07-29T23:11:52.685Z,100623.91
2022-07-29T23:14:21.248Z,100614.13
2022-07-29T23:16:50.581Z,100617.59
2022-07-29T23:19:19.459Z,100617.34
2022-07-29T23:21:49.440Z,100617.16
2022-07-29T23:24:18.065Z,100589.09
2022-07-29T23:26:47.029Z,100611.66
2022-07-29T23:29:15.619Z,100604.56
2022-07-29T23:31:48.140Z,100550.94
2022-07-29T23:34:17.198Z,100605.72
2022-07-29T23:36:46.089Z,100606.50
2022-07-29T23:39:16.501Z,100610.97
2022-07-29T23:41:45.325Z,100612.19
2022-07-29T23:44:14.091Z,100513.97
2022-07-29T23:46:43.046Z,100598.03
2022-07-29T23:49:11.610Z,100602.44
2022-07-29T23:51:40.269Z,100596.66
2022-07-29T23:54:09.197Z,100609.28
2022-07-29T23:56:39.163Z,100611.03
2022-07-29T23:59:08.055Z,100615.00
